createdAt,value
2023-04-20T00:00:00.762Z,10.10
2023-04-20T00:03:08.186Z,10.60
2023-04-20T00:05:55.185Z,9.50
2023-04-20T00:08:41.410Z,10.50
2023-04-20T00:11:28.276Z,11.80
2023-04-20T00:14:16.049Z,10.30
2023-04-20T00:17:02.251Z,7.90
2023-04-20T00:19:48.870Z,10.30
2023-04-20T00:22:36.021Z,9.20
2023-04-20T00:25:22.424Z,10.20
2023-04-20T00:28:08.962Z,10.30
2023-04-20T00:30:55.720Z,10.70
2023-04-20T00:33:42.300Z,10.00
2023-04-20T00:36:29.969Z,9.80
2023-04-20T00:39:18.655Z,9.10
2023-04-20T00:42:06.857Z,10.20
2023-04-20T00:44:53.210Z,8.50
2023-04-20T00:47:39.524Z,10.40
2023-04-20T00:50:26.003Z,11.10
2023-04-20T00:53:13.199Z,10.70
2023-04-20T00:55:59.828Z,11.10
2023-04-20T00:58:46.768Z,9.40
2023-04-20T01:01:33.269Z,10.30
2023-04-20T01:04:20.745Z,9.80
2023-04-20T01:07:07.892Z,11.20
2023-04-20T01:09:54.471Z,11.00
2023-04-20T01:12:41.379Z,11.20
2023-04-20T01:15:29.819Z,11.00
2023-04-20T01:18:19.969Z,10.40
2023-04-20T01:21:06.597Z,10.60
2023-04-20T01:23:53.045Z,10.40
2023-04-20T01:26:39.244Z,11.00
2023-04-20T01:29:27.658Z,10.20
2023-04-20T01:32:14.411Z,12.40
2023-04-20T01:35:01.668Z,11.70
2023-04-20T01:37:48.324Z,10.20
2023-04-20T01:40:35.403Z,11.50
2023-04-20T01:43:22.928Z,12.00
2023-04-20T01:46:09.626Z,10.70
2023-04-20T01:48:56.020Z,10.90
2023-04-20T01:51:42.539Z,10.90
2023-04-20T01:54:29.161Z,11.30
2023-04-20T01:57:15.618Z,9.30
2023-04-20T02:00:02.730Z,11.00
2023-04-20T02:03:01.103Z,11.70
2023-04-20T02:05:47.585Z,11.70
2023-04-20T02:08:34.756Z,12.00
2023-04-20T02:11:22.487Z,11.00
2023-04-20T02:14:08.869Z,10.50
2023-04-20T02:16:55.770Z,10.80
2023-04-20T02:19:42.695Z,10.60
2023-04-20T02:22:29.211Z,11.60
2023-04-20T02:25:16.007Z,11.30
2023-04-20T02:28:03.948Z,11.30
2023-04-20T02:30:50.071Z,9.80
2023-04-20T02:33:36.579Z,10.80
2023-04-20T02:36:23.112Z,11.10
2023-04-20T02:39:10.243Z,13.00
2023-04-20T02:41:56.941Z,12.40
2023-04-20T02:44:44.139Z,10.70
2023-04-20T02:47:31.103Z,10.50
2023-04-20T02:50:17.785Z,10.50
2023-04-20T02:53:23.368Z,11.60
2023-04-20T02:56:15.904Z,13.70
2023-04-20T02:59:04.245Z,15.90
2023-04-20T03:02:00.363Z,12.50
2023-04-20T03:04:47.274Z,10.30
2023-04-20T03:07:39.798Z,11.40
2023-04-20T03:10:27.709Z,13.30
2023-04-20T03:13:19.510Z,13.10
2023-04-20T03:16:20.003Z,13.20
2023-04-20T03:19:10.329Z,11.90
2023-04-20T03:21:57.237Z,12.40
2023-04-20T03:24:43.998Z,10.90
2023-04-20T03:27:47.644Z,10.50
2023-04-20T03:30:34.000Z,13.90
2023-04-20T03:33:23.896Z,14.10
2023-04-20T03:36:11.491Z,12.40
2023-04-20T03:38:57.892Z,12.00
2023-04-20T03:41:44.567Z,11.10
2023-04-20T03:44:31.145Z,11.80
2023-04-20T03:47:17.612Z,11.00
2023-04-20T03:50:04.348Z,14.40
2023-04-20T03:52:51.353Z,14.40
2023-04-20T03:55:37.874Z,12.70
2023-04-20T03:58:26.784Z,11.50
2023-04-20T04:01:21.229Z,11.00
2023-04-20T04:04:08.685Z,11.30
2023-04-20T04:06:55.243Z,11.70
2023-04-20T04:09:43.580Z,13.20
2023-04-20T04:12:30.707Z,10.80
2023-04-20T04:15:19.273Z,11.50
2023-04-20T04:18:13.979Z,11.30
2023-04-20T04:21:00.713Z,10.40
2023-04-20T04:23:47.563Z,9.10
2023-04-20T04:26:58.547Z,12.00
2023-04-20T04:29:45.616Z,11.10
2023-04-20T04:32:36.112Z,10.70
2023-04-20T04:35:24.921Z,10.60
2023-04-20T04:38:14.051Z,9.80
2023-04-20T04:41:02.715Z,10.30
2023-04-20T04:43:49.729Z,8.90
2023-04-20T04:46:45.745Z,10.60
2023-04-20T04:49:32.901Z,10.00
2023-04-20T04:52:20.998Z,10.20
2023-04-20T04:55:09.654Z,10.40
2023-04-20T04:57:57.266Z,9.20
2023-04-20T05:00:43.768Z,11.80
2023-04-20T05:03:30.177Z,10.10
2023-04-20T05:06:16.625Z,10.00
2023-04-20T05:09:03.330Z,7.80
2023-04-20T05:11:49.707Z,10.00
2023-04-20T05:14:36.595Z,10.10
2023-04-20T05:17:23.229Z,10.90
2023-04-20T05:20:11.566Z,10.30
2023-04-20T05:22:57.982Z,11.70
2023-04-20T05:25:44.542Z,11.70
2023-04-20T05:28:31.077Z,10.90
2023-04-20T05:31:18.079Z,10.30
2023-04-20T05:34:04.768Z,8.90
2023-04-20T05:36:52.830Z,11.10
2023-04-20T05:39:39.150Z,11.10
2023-04-20T05:42:25.908Z,8.80
2023-04-20T05:45:12.773Z,9.90
2023-04-20T05:47:59.582Z,9.80
2023-04-20T05:50:45.807Z,8.20
2023-04-20T05:53:32.286Z,9.70
2023-04-20T05:56:19.415Z,10.00
2023-04-20T05:59:06.501Z,10.00
2023-04-20T06:01:53.006Z,9.00
2023-04-20T06:04:39.771Z,8.20
2023-04-20T06:07:26.891Z,6.20
2023-04-20T06:10:13.648Z,8.90
2023-04-20T06:12:59.943Z,10.20
2023-04-20T06:15:46.711Z,8.00
2023-04-20T06:18:33.910Z,8.60
2023-04-20T06:21:20.906Z,7.30
2023-04-20T06:24:07.714Z,6.60
2023-04-20T06:26:54.330Z,8.00
2023-04-20T06:29:40.831Z,7.10
2023-04-20T06:32:29.396Z,8.90
2023-04-20T06:35:16.341Z,7.90
2023-04-20T06:38:03.279Z,8.80
2023-04-20T06:40:49.934Z,6.60
2023-04-20T06:43:36.650Z,8.20
2023-04-20T06:46:23.332Z,8.60
2023-04-20T06:49:09.989Z,8.00
2023-04-20T06:51:56.885Z,7.40
2023-04-20T06:54:44.092Z,7.40
2023-04-20T06:57:30.536Z,9.00
2023-04-20T07:00:17.663Z,6.80
2023-04-20T07:03:04.296Z,8.20
2023-04-20T07:05:51.187Z,7.30
2023-04-20T07:08:39.804Z,4.90
2023-04-20T07:11:26.613Z,7.80
2023-04-20T07:14:13.342Z,6.70
2023-04-20T07:16:59.940Z,7.50
2023-04-20T07:19:47.020Z,7.80
2023-04-20T07:22:34.503Z,7.30
2023-04-20T07:25:21.705Z,7.10
2023-04-20T07:28:08.124Z,7.60
2023-04-20T07:30:54.432Z,7.50
2023-04-20T07:33:41.174Z,7.60
2023-04-20T07:36:28.120Z,7.70
2023-04-20T07:39:16.116Z,5.10
2023-04-20T07:42:04.267Z,7.90
2023-04-20T07:44:51.302Z,6.00
2023-04-20T07:47:38.324Z,6.40
2023-04-20T07:50:25.241Z,6.50
2023-04-20T07:53:12.844Z,6.60
2023-04-20T07:55:59.728Z,7.10
2023-04-20T07:58:46.353Z,6.70
2023-04-20T08:01:33.926Z,7.60
2023-04-20T08:04:20.577Z,7.10
2023-04-20T08:07:07.312Z,6.50
2023-04-20T08:09:53.759Z,7.20
2023-04-20T08:12:40.766Z,7.30
2023-04-20T08:15:27.934Z,6.50
2023-04-20T08:18:14.860Z,7.90
2023-04-20T08:21:01.363Z,6.80
2023-04-20T08:23:47.660Z,5.40
2023-04-20T08:26:34.252Z,7.00
2023-04-20T08:29:20.950Z,6.70
2023-04-20T08:32:12.347Z,6.70
2023-04-20T08:34:59.052Z,8.30
2023-04-20T08:37:45.453Z,6.30
2023-04-20T08:40:32.093Z,7.20
2023-04-20T08:43:20.221Z,6.50
2023-04-20T08:46:07.922Z,6.20
2023-04-20T08:48:57.181Z,6.30
2023-04-20T08:51:45.512Z,7.00
2023-04-20T08:54:32.621Z,7.00
2023-04-20T08:57:20.725Z,7.00
2023-04-20T09:00:12.112Z,6.80
2023-04-20T09:03:02.075Z,6.40
2023-04-20T09:05:49.980Z,7.70
2023-04-20T09:08:40.072Z,7.90
2023-04-20T09:11:29.770Z,7.10
2023-04-20T09:17:05.271Z,6.20
2023-04-20T09:19:54.810Z,8.00
2023-04-20T09:22:41.562Z,5.90
2023-04-20T09:25:32.299Z,6.80
2023-04-20T09:28:19.378Z,7.20
2023-04-20T09:31:06.075Z,5.50
2023-04-20T09:34:00.532Z,6.10
2023-04-20T09:36:54.420Z,6.60
2023-04-20T09:39:44.172Z,5.20
2023-04-20T09:42:32.809Z,5.60
2023-04-20T09:45:19.106Z,5.70
2023-04-20T09:48:09.038Z,4.70
2023-04-20T09:50:56.647Z,5.90
2023-04-20T09:53:43.436Z,5.30
2023-04-20T09:56:31.561Z,6.10
2023-04-20T09:59:19.699Z,5.90
2023-04-20T10:02:10.815Z,6.10
2023-04-20T10:04:58.905Z,6.10
2023-04-20T10:07:45.831Z,5.70
2023-04-20T10:10:52.378Z,5.60
2023-04-20T10:13:39.087Z,5.70
2023-04-20T10:16:26.686Z,4.30
2023-04-20T10:19:13.570Z,4.20
2023-04-20T10:22:01.041Z,5.50
2023-04-20T10:24:47.346Z,6.30
2023-04-20T10:27:34.136Z,5.20
2023-04-20T10:30:21.151Z,5.40
2023-04-20T10:33:11.950Z,5.00
2023-04-20T10:35:59.539Z,5.90
2023-04-20T10:38:46.013Z,6.30
2023-04-20T10:41:32.367Z,6.50
2023-04-20T10:44:19.137Z,6.50
2023-04-20T10:47:06.001Z,5.70
2023-04-20T10:49:52.684Z,5.70
2023-04-20T10:52:41.313Z,6.00
2023-04-20T10:55:28.130Z,5.40
2023-04-20T10:58:22.450Z,4.90
2023-04-20T11:01:09.120Z,4.40
2023-04-20T11:03:55.915Z,4.40
2023-04-20T11:06:44.876Z,4.90
2023-04-20T11:09:33.460Z,4.50
2023-04-20T11:12:20.069Z,4.40
2023-04-20T11:15:09.623Z,4.20
2023-04-20T11:17:55.727Z,4.30
2023-04-20T11:20:56.269Z,4.50
2023-04-20T11:23:43.637Z,4.50
2023-04-20T11:26:40.844Z,4.70
2023-04-20T11:29:35.680Z,4.40
2023-04-20T11:32:22.448Z,4.80
2023-04-20T11:35:11.142Z,4.30
2023-04-20T11:37:57.634Z,4.50
2023-04-20T11:40:44.182Z,4.40
2023-04-20T11:43:32.291Z,4.40
2023-04-20T11:46:20.473Z,5.10
2023-04-20T11:49:07.254Z,5.40
2023-04-20T11:51:54.046Z,4.90
2023-04-20T11:54:40.413Z,5.30
2023-04-20T11:57:26.965Z,4.80
2023-04-20T12:00:14.323Z,5.20
2023-04-20T12:03:02.502Z,5.60
2023-04-20T12:05:49.349Z,5.40
2023-04-20T12:08:36.608Z,5.60
2023-04-20T12:11:24.684Z,5.70
2023-04-20T12:14:11.352Z,4.90
2023-04-20T12:16:58.728Z,5.90
2023-04-20T12:19:45.266Z,5.50
2023-04-20T12:22:31.417Z,4.40
2023-04-20T12:25:17.965Z,5.10
2023-04-20T12:28:07.426Z,4.80
2023-04-20T12:30:54.091Z,5.10
2023-04-20T12:33:40.637Z,5.50
2023-04-20T12:36:28.224Z,5.40
2023-04-20T12:39:15.165Z,5.50
2023-04-20T12:42:02.493Z,5.00
2023-04-20T12:44:49.015Z,4.70
2023-04-20T12:47:35.474Z,5.60
2023-04-20T12:50:22.126Z,4.90
2023-04-20T12:53:08.863Z,4.90
2023-04-20T12:56:01.047Z,5.10
2023-04-20T12:58:47.912Z,4.50
2023-04-20T13:01:34.731Z,5.30
2023-04-20T13:04:21.352Z,5.10
2023-04-20T13:07:08.645Z,4.50
2023-04-20T13:09:55.073Z,5.20
2023-04-20T13:12:41.684Z,4.10
2023-04-20T13:15:38.153Z,4.40
2023-04-20T13:18:25.846Z,4.40
2023-04-20T13:21:12.483Z,3.60
2023-04-20T13:23:59.174Z,4.50
2023-04-20T13:26:45.621Z,4.00
2023-04-20T13:29:32.474Z,4.60
2023-04-20T13:32:19.346Z,4.30
2023-04-20T13:35:07.404Z,4.40
2023-04-20T13:37:53.719Z,4.00
2023-04-20T13:40:40.509Z,4.70
2023-04-20T13:43:26.748Z,4.00
2023-04-20T13:46:13.099Z,3.90
2023-04-20T13:49:00.066Z,3.70
2023-04-20T13:51:46.378Z,3.50
2023-04-20T13:54:32.728Z,3.70
2023-04-20T13:57:19.181Z,3.60
2023-04-20T14:00:07.350Z,3.70
2023-04-20T14:02:56.320Z,3.80
2023-04-20T14:05:44.369Z,3.90
2023-04-20T14:08:31.035Z,3.90
2023-04-20T14:11:17.718Z,3.90
2023-04-20T14:14:04.200Z,3.60
2023-04-20T14:16:51.852Z,4.10
2023-04-20T14:19:38.403Z,4.30
2023-04-20T14:22:25.770Z,3.60
2023-04-20T14:25:12.738Z,4.10
2023-04-20T14:27:59.142Z,4.50
2023-04-20T14:30:46.096Z,4.10
2023-04-20T14:33:33.411Z,4.10
2023-04-20T14:36:20.347Z,3.80
2023-04-20T14:39:06.932Z,4.10
2023-04-20T14:41:53.264Z,3.80
2023-04-20T14:44:39.762Z,4.00
2023-04-20T14:47:26.399Z,4.70
2023-04-20T14:50:13.194Z,3.60
2023-04-20T14:52:59.655Z,3.80
2023-04-20T14:55:46.309Z,4.00
2023-04-20T14:58:33.690Z,3.30
2023-04-20T15:01:21.695Z,3.30
2023-04-20T15:04:08.661Z,2.60
2023-04-20T15:06:55.573Z,3.40
2023-04-20T15:09:42.422Z,3.10
2023-04-20T15:12:28.634Z,4.00
2023-04-20T15:15:16.419Z,4.40
2023-04-20T15:18:03.335Z,2.90
2023-04-20T15:20:52.655Z,3.70
2023-04-20T15:23:39.228Z,4.30
2023-04-20T15:26:26.987Z,5.70
2023-04-20T15:29:14.326Z,5.20
2023-04-20T15:32:01.714Z,5.40
2023-04-20T15:34:48.520Z,4.50
2023-04-20T15:37:35.382Z,4.10
2023-04-20T15:40:22.112Z,6.00
2023-04-20T15:43:09.120Z,5.70
2023-04-20T15:45:55.952Z,5.40
2023-04-20T15:48:43.501Z,4.70
2023-04-20T15:51:30.291Z,4.90
2023-04-20T15:54:17.184Z,4.50
2023-04-20T15:57:04.172Z,4.00
2023-04-20T15:59:50.712Z,3.40
2023-04-20T16:02:40.417Z,4.20
2023-04-20T16:08:14.407Z,4.10
2023-04-20T16:11:01.223Z,4.30
2023-04-20T16:13:48.517Z,4.00
2023-04-20T16:16:35.046Z,5.10
2023-04-20T16:19:21.586Z,4.60
2023-04-20T16:22:08.421Z,4.60
2023-04-20T16:24:54.764Z,3.70
2023-04-20T16:27:41.851Z,4.00
2023-04-20T16:30:28.502Z,4.20
2023-04-20T16:33:14.882Z,4.50
2023-04-20T16:36:01.887Z,4.30
2023-04-20T16:38:48.252Z,4.40
2023-04-20T16:41:34.970Z,3.80
2023-04-20T16:44:21.634Z,4.10
2023-04-20T16:47:08.418Z,3.50
2023-04-20T16:49:55.302Z,3.40
2023-04-20T16:52:42.011Z,4.20
2023-04-20T16:55:29.185Z,4.70
2023-04-20T16:58:15.602Z,5.00
2023-04-20T17:01:02.243Z,6.00
2023-04-20T17:03:49.201Z,5.80
2023-04-20T17:06:35.811Z,6.60
2023-04-20T17:09:23.204Z,5.20
2023-04-20T17:12:09.823Z,5.00
2023-04-20T17:14:56.450Z,5.10
2023-04-20T17:17:43.004Z,5.90
2023-04-20T17:20:29.784Z,6.60
2023-04-20T17:23:18.029Z,6.90
2023-04-20T17:26:04.860Z,7.90
2023-04-20T17:28:51.327Z,8.50
2023-04-20T17:31:37.592Z,7.50
2023-04-20T17:34:24.191Z,7.00
2023-04-20T17:37:12.108Z,7.20
2023-04-20T17:39:58.621Z,7.80
2023-04-20T17:42:45.346Z,8.50
2023-04-20T17:45:34.475Z,8.70
2023-04-20T17:48:21.218Z,7.80
2023-04-20T17:51:07.872Z,8.80
2023-04-20T17:53:54.447Z,9.30
2023-04-20T17:56:40.978Z,10.60
2023-04-20T17:59:29.159Z,9.10
2023-04-20T18:02:17.103Z,10.20
2023-04-20T18:05:04.937Z,9.90
2023-04-20T18:07:52.341Z,10.40
2023-04-20T18:10:39.239Z,11.30
2023-04-20T18:13:26.443Z,10.00
2023-04-20T18:16:13.365Z,10.10
2023-04-20T18:19:00.197Z,10.30
2023-04-20T18:21:47.195Z,8.20
2023-04-20T18:24:34.107Z,6.40
2023-04-20T18:27:20.640Z,10.40
2023-04-20T18:30:09.008Z,8.40
2023-04-20T18:32:55.648Z,8.50
2023-04-20T18:35:43.692Z,7.60
2023-04-20T18:38:30.082Z,8.70
2023-04-20T18:41:18.161Z,8.20
2023-04-20T18:44:05.019Z,8.20
2023-04-20T18:46:51.954Z,7.90
2023-04-20T18:49:38.799Z,8.30
2023-04-20T18:52:25.976Z,8.90
2023-04-20T18:55:12.515Z,7.50
2023-04-20T18:57:59.931Z,7.90
2023-04-20T19:00:49.142Z,8.20
2023-04-20T19:03:35.757Z,7.80
2023-04-20T19:06:22.931Z,7.70
2023-04-20T19:09:10.020Z,7.80
2023-04-20T19:11:57.252Z,8.30
2023-04-20T19:14:43.988Z,8.90
2023-04-20T19:17:30.401Z,9.10
2023-04-20T19:20:16.970Z,8.30
2023-04-20T19:23:03.479Z,8.10
2023-04-20T19:25:50.326Z,8.10
2023-04-20T19:28:37.296Z,9.80
2023-04-20T19:31:24.074Z,8.40
2023-04-20T19:34:13.580Z,8.40
2023-04-20T19:37:00.188Z,8.60
2023-04-20T19:39:47.062Z,8.30
2023-04-20T19:42:34.001Z,9.20
2023-04-20T19:45:20.278Z,7.80
2023-04-20T19:48:07.356Z,7.90
2023-04-20T19:50:56.976Z,7.90
2023-04-20T19:53:43.288Z,8.30
2023-04-20T19:56:30.383Z,8.20
2023-04-20T19:59:17.790Z,8.60
2023-04-20T20:02:05.169Z,5.50
2023-04-20T20:04:52.284Z,7.00
2023-04-20T20:07:39.057Z,6.40
2023-04-20T20:10:25.618Z,8.30
2023-04-20T20:13:12.875Z,8.60
2023-04-20T20:16:00.588Z,8.40
2023-04-20T20:18:48.844Z,8.50
2023-04-20T20:21:35.416Z,7.70
2023-04-20T20:24:25.267Z,8.40
2023-04-20T20:27:11.983Z,8.30
2023-04-20T20:29:58.246Z,8.60
2023-04-20T20:32:45.003Z,7.50
2023-04-20T20:35:33.464Z,7.40
2023-04-20T20:38:21.041Z,6.20
2023-04-20T20:41:07.647Z,8.40
2023-04-20T20:43:55.457Z,6.60
2023-04-20T20:46:42.464Z,8.30
2023-04-20T20:49:29.006Z,7.80
2023-04-20T20:52:16.081Z,6.50
2023-04-20T20:55:02.963Z,8.20
2023-04-20T20:57:49.389Z,7.40
2023-04-20T21:00:36.083Z,6.90
2023-04-20T21:03:22.613Z,7.90
2023-04-20T21:06:09.722Z,7.70
2023-04-20T21:08:56.680Z,7.80
2023-04-20T21:11:43.433Z,8.20
2023-04-20T21:14:29.941Z,7.20
2023-04-20T21:17:16.442Z,6.90
2023-04-20T21:20:05.725Z,8.20
2023-04-20T21:22:52.247Z,7.20
2023-04-20T21:25:38.726Z,7.80
2023-04-20T21:28:25.622Z,7.70
2023-04-20T21:31:12.495Z,7.30
2023-04-20T21:33:59.521Z,7.70
2023-04-20T21:36:45.950Z,8.00
2023-04-20T21:39:32.490Z,7.50
2023-04-20T21:42:19.145Z,8.10
2023-04-20T21:45:06.607Z,8.10
2023-04-20T21:47:55.499Z,6.80
2023-04-20T21:50:41.991Z,7.70
2023-04-20T21:53:28.220Z,8.50
2023-04-20T21:56:14.988Z,8.50
2023-04-20T21:59:01.828Z,7.70
2023-04-20T22:01:48.355Z,7.60
2023-04-20T22:04:35.028Z,7.90
2023-04-20T22:07:21.273Z,7.20
2023-04-20T22:10:08.793Z,7.60
2023-04-20T22:12:55.379Z,7.90
2023-04-20T22:15:42.018Z,8.30
2023-04-20T22:18:28.501Z,8.50
2023-04-20T22:21:15.509Z,8.40
2023-04-20T22:24:01.986Z,8.40
2023-04-20T22:26:48.553Z,7.40
2023-04-20T22:29:34.781Z,7.10
2023-04-20T22:32:20.979Z,7.50
2023-04-20T22:35:08.027Z,7.80
2023-04-20T22:37:54.822Z,7.90
2023-04-20T22:40:41.527Z,7.90
2023-04-20T22:43:28.258Z,7.20
2023-04-20T22:46:15.017Z,7.50
2023-04-20T22:49:01.605Z,7.30
2023-04-20T22:51:48.215Z,7.50
2023-04-20T22:54:34.829Z,7.00
2023-04-20T22:57:23.570Z,7.40
2023-04-20T23:00:10.596Z,7.50
2023-04-20T23:02:57.580Z,7.80
2023-04-20T23:05:44.512Z,7.00
2023-04-20T23:08:33.502Z,7.70
2023-04-20T23:11:20.859Z,7.40
2023-04-20T23:14:09.090Z,10.10
2023-04-20T23:16:55.603Z,10.50
2023-04-20T23:19:41.769Z,8.70
2023-04-20T23:22:28.316Z,9.90
2023-04-20T23:25:14.786Z,9.30
2023-04-20T23:28:01.316Z,7.60
2023-04-20T23:30:47.590Z,7.90
2023-04-20T23:33:34.291Z,7.90
2023-04-20T23:36:20.910Z,7.20
2023-04-20T23:39:07.503Z,7.40
2023-04-20T23:41:54.002Z,8.40
2023-04-20T23:44:40.512Z,7.70
2023-04-20T23:47:27.183Z,7.00
2023-04-20T23:50:14.113Z,7.80
2023-04-20T23:53:01.422Z,7.70
2023-04-20T23:55:55.381Z,7.20
2023-04-20T23:58:42.097Z,7.60
